Time;durP1;ratioP1;P1;durP2;ratioP2;P2;SDS_P1;SDS_P2;PMS_P1;PMS_P2;Temp;Humidity;BMP_temperature;BMP_pressure;BME280_temperature;BME280_humidity;BME280_pressure;Samples;Min_cycle;Max_cycle;Signal;HPM_P1;HPM_P2
2023/07/04 00:01:32;;;;;;;7.72;4.00;;;;;;;21.84;64.31;100998.97;4992261;28;20476;-83
2023/07/04 00:03:57;;;;;;;4.18;3.22;;;;;;;21.89;64.67;101015.19;4976080;28;20026;-82
2023/07/04 00:06:25;;;;;;;5.38;3.33;;;;;;;21.73;64.50;100993.84;4992414;28;20097;-81
2023/07/04 00:08:51;;;;;;;5.20;3.42;;;;;;;21.77;64.63;101005.75;4975871;28;20076;-81
2023/07/04 00:11:19;;;;;;;6.47;3.58;;;;;;;21.57;65.36;100993.56;4992220;28;20106;-81
2023/07/04 00:13:44;;;;;;;9.95;3.55;;;;;;;21.58;65.65;101008.38;4975574;28;20041;-83
2023/07/04 00:16:13;;;;;;;6.55;3.15;;;;;;;21.63;65.87;101019.31;4991806;28;20034;-81
2023/07/04 00:18:39;;;;;;;6.60;3.40;;;;;;;21.63;66.09;101014.91;4992079;28;20022;-82
2023/07/04 00:21:07;;;;;;;6.05;4.03;;;;;;;21.53;65.75;101019.31;4991932;28;20595;-82
2023/07/04 00:23:34;;;;;;;4.90;3.28;;;;;;;21.20;66.65;101007.31;4991986;28;20034;-82
2023/07/04 00:26:00;;;;;;;5.32;3.20;;;;;;;21.09;66.90;101002.97;4991924;28;20026;-82
2023/07/04 00:28:26;;;;;;;7.47;4.20;;;;;;;21.10;67.47;101016.97;4991543;28;20077;-82
2023/07/04 00:30:52;;;;;;;5.38;3.58;;;;;;;21.02;67.86;100996.56;5008402;28;20481;-82
2023/07/04 00:33:26;;;;;;;6.72;4.22;;;;;;;21.13;67.77;101006.16;4991870;28;20026;-81
2023/07/04 00:36:03;;;;;;;6.32;4.07;;;;;;;21.14;67.84;101021.84;4991197;28;20488;-82
2023/07/04 00:38:32;;;;;;;7.47;3.92;;;;;;;21.06;68.05;101005.06;4992190;28;20470;-81
2023/07/04 00:41:00;;;;;;;5.60;3.40;;;;;;;21.09;68.03;101010.03;4991721;28;20118;-81
2023/07/04 00:44:00;;;;;;;6.30;3.63;;;;;;;21.17;67.59;101015.47;4991629;28;20034;-82
2023/07/04 00:46:37;;;;;;;5.97;3.53;;;;;;;21.18;67.71;101020.59;4976646;28;20026;-81
2023/07/04 00:49:17;;;;;;;6.50;3.65;;;;;;;21.17;67.66;101028.63;4975274;28;20033;-82
2023/07/04 00:51:47;;;;;;;5.25;3.92;;;;;;;21.08;67.77;101024.16;4991358;28;20031;-82
2023/07/04 00:54:13;;;;;;;7.03;3.80;;;;;;;21.00;68.82;101016.09;4975417;28;20089;-82
2023/07/04 00:56:39;;;;;;;7.38;3.33;;;;;;;20.94;68.19;101000.84;4974845;28;20400;-82
2023/07/04 00:59:05;;;;;;;4.72;3.15;;;;;;;20.95;68.25;101002.53;4991290;28;20435;-81
2023/07/04 01:01:31;;;;;;;5.43;3.33;;;;;;;20.88;68.77;101013.56;4990924;28;20244;-81
2023/07/04 01:03:58;;;;;;;5.88;3.45;;;;;;;20.82;69.24;101013.25;4991017;28;20084;-81
2023/07/04 01:06:32;;;;;;;8.10;3.67;;;;;;;20.69;69.99;101018.72;4990686;28;20047;-82
2023/07/04 01:08:59;;;;;;;5.97;3.60;;;;;;;20.53;70.27;101019.19;4991426;28;20480;-81
2023/07/04 01:11:30;;;;;;;6.38;3.30;;;;;;;20.48;70.68;101015.31;4990734;28;20038;-82
2023/07/04 01:13:55;;;;;;;5.20;3.55;;;;;;;20.45;71.41;101026.91;4974759;28;20424;-81
2023/07/04 01:16:22;;;;;;;5.35;3.28;;;;;;;20.62;71.04;101031.56;5007065;28;20030;-81
2023/07/04 01:18:49;;;;;;;6.90;3.83;;;;;;;20.60;70.78;101019.50;4991063;28;20492;-82
2023/07/04 01:21:17;;;;;;;6.13;3.65;;;;;;;20.67;70.55;101031.19;4974555;28;20396;-82
2023/07/04 01:23:55;;;;;;;6.13;3.60;;;;;;;20.74;70.88;101031.47;4974772;28;20500;-81
2023/07/04 01:26:38;;;;;;;8.18;4.35;;;;;;;20.69;70.51;101023.16;4990413;28;20435;-81
2023/07/04 01:29:07;;;;;;;5.95;4.20;;;;;;;20.61;70.69;101016.75;4974613;28;20026;-81
2023/07/04 01:31:35;;;;;;;6.88;3.88;;;;;;;20.60;70.47;101014.25;4990776;28;20499;-82
2023/07/04 01:34:02;;;;;;;6.38;3.65;;;;;;;20.65;70.97;101030.47;4974735;28;20032;-82
2023/07/04 01:36:30;;;;;;;5.50;3.55;;;;;;;20.64;70.93;101026.16;4990904;28;20034;-82
2023/07/04 01:38:55;;;;;;;5.78;3.50;;;;;;;20.69;70.36;101018.72;4990403;28;20046;-83
2023/07/04 01:41:21;;;;;;;5.80;3.70;;;;;;;20.72;70.73;101028.97;4990265;28;20049;-82
2023/07/04 01:43:50;;;;;;;6.88;3.40;;;;;;;20.72;70.63;101021.09;4990674;28;20185;-83
2023/07/04 01:46:16;;;;;;;5.32;3.47;;;;;;;20.63;71.31;101011.34;4990131;28;20022;-81
2023/07/04 01:48:42;;;;;;;5.40;3.65;;;;;;;20.64;71.20;101020.91;4990300;28;20104;-81
2023/07/04 01:51:07;;;;;;;6.10;3.60;;;;;;;20.64;70.97;101015.66;4974228;28;20034;-81
2023/07/04 01:53:32;;;;;;;7.10;4.20;;;;;;;20.49;71.18;100995.94;4990170;28;20033;-81
2023/07/04 01:55:58;;;;;;;5.93;3.83;;;;;;;20.51;71.71;101015.03;4990054;28;20408;-82
2023/07/04 01:58:23;;;;;;;6.45;3.60;;;;;;;20.52;72.02;101017.53;4974079;28;20034;-82
2023/07/04 02:00:49;;;;;;;11.48;4.00;;;;;;;20.60;72.00;101020.34;4990291;28;20042;-82
2023/07/04 02:03:14;;;;;;;6.28;3.83;;;;;;;20.55;71.62;101011.16;4990300;28;20030;-82
2023/07/04 02:05:40;;;;;;;10.52;3.35;;;;;;;20.62;71.23;101017.56;4990449;28;20101;-82
2023/07/04 02:08:05;;;;;;;5.32;3.50;;;;;;;20.56;71.61;101013.69;4973717;28;20057;-82
2023/07/04 02:10:31;;;;;;;5.38;3.63;;;;;;;20.51;71.72;101010.59;4990113;28;20134;-82
2023/07/04 02:12:56;;;;;;;7.20;4.25;;;;;;;20.52;72.18;101014.06;4990111;28;20052;-83
2023/07/04 02:15:23;;;;;;;7.43;4.43;;;;;;;20.53;72.29;101015.72;4973880;28;20034;-82
2023/07/04 02:17:48;;;;;;;6.72;3.65;;;;;;;20.56;71.71;101015.50;5006373;28;20026;-83
2023/07/04 02:20:16;;;;;;;7.35;3.78;;;;;;;20.65;71.11;101013.84;4990109;28;20030;-82
2023/07/04 02:22:41;;;;;;;6.97;3.63;;;;;;;20.62;71.48;101017.56;4989546;28;20046;-82
2023/07/04 02:25:07;;;;;;;5.32;3.67;;;;;;;20.55;71.27;101016.44;4990344;28;20483;-82
2023/07/04 02:27:33;;;;;;;5.10;3.30;;;;;;;20.56;71.23;101028.63;4989926;28;20038;-81
2023/07/04 02:29:58;;;;;;;6.00;3.80;;;;;;;20.45;71.53;100991.88;4990067;28;20026;-81
2023/07/04 02:32:23;;;;;;;4.60;3.22;;;;;;;20.52;71.60;101016.69;5006371;28;20502;-81
2023/07/04 02:34:49;;;;;;;5.60;3.67;;;;;;;20.40;71.93;101009.81;4973758;28;20034;-81
2023/07/04 02:37:14;;;;;;;6.60;3.72;;;;;;;20.32;71.82;101006.03;4989450;28;20042;-81
2023/07/04 02:39:40;;;;;;;4.43;3.40;;;;;;;20.38;72.03;101015.22;4989822;28;20035;-82
2023/07/04 02:42:06;;;;;;;4.47;2.95;;;;;;;20.31;71.99;101009.63;4989709;28;20613;-82
2023/07/04 02:44:33;;;;;;;5.03;3.60;;;;;;;20.31;72.10;101022.75;4990038;28;20023;-81
2023/07/04 02:46:58;;;;;;;6.15;3.28;;;;;;;20.10;72.64;101000.91;4989922;28;20030;-81
2023/07/04 02:49:23;;;;;;;5.55;3.30;;;;;;;20.07;73.04;101014.31;4989602;28;20026;-81
2023/07/04 02:51:49;;;;;;;4.13;2.88;;;;;;;20.50;72.12;101040.47;4973329;28;20038;-82
2023/07/04 02:54:15;;;;;;;3.80;3.05;;;;;;;20.86;70.09;101036.53;4973565;28;20030;-82
2023/07/04 02:56:41;;;;;;;6.85;2.72;;;;;;;20.79;70.43;101019.63;5005988;28;20035;-81
2023/07/04 02:59:07;;;;;;;4.00;2.85;;;;;;;20.72;69.44;101038.66;4976132;28;20089;-82
2023/07/04 03:01:32;;;;;;;7.82;3.47;;;;;;;20.58;70.41;101039.84;4977143;28;20031;-82
2023/07/04 03:03:58;;;;;;;4.13;2.95;;;;;;;20.78;70.50;101054.75;4977172;28;20034;-82
2023/07/04 03:06:23;;;;;;;6.05;3.28;;;;;;;20.68;69.42;101037.28;5009279;28;20106;-82
2023/07/04 03:08:49;;;;;;;4.75;3.08;;;;;;;20.66;70.18;101050.56;4993449;28;20045;-81
2023/07/04 03:11:14;;;;;;;4.65;2.70;;;;;;;20.38;70.74;101045.91;4993053;28;20088;-82
2023/07/04 03:13:40;;;;;;;4.78;3.05;;;;;;;20.29;71.62;101053.59;4993278;28;20034;-82
2023/07/04 03:16:05;;;;;;;12.38;3.10;;;;;;;20.25;72.24;101056.59;4993310;28;20026;-82
2023/07/04 03:18:32;;;;;;;15.15;3.78;;;;;;;20.31;71.17;101056.91;4993218;28;20022;-81
2023/07/04 03:20:58;;;;;;;7.57;3.60;;;;;;;20.30;71.23;101055.25;5008688;28;20089;-82
2023/07/04 03:23:23;;;;;;;10.75;3.60;;;;;;;20.21;71.62;101061.25;4993170;28;20030;-82
2023/07/04 03:25:48;;;;;;;7.72;3.58;;;;;;;20.12;71.87;101064.66;5009108;28;20026;-83
2023/07/04 03:28:14;;;;;;;25.15;3.90;;;;;;;20.04;72.16;101060.00;4992808;28;20514;-82
2023/07/04 03:30:39;;;;;;;6.72;3.53;;;;;;;19.93;71.94;101043.47;4992973;28;20531;-82
2023/07/04 03:33:05;;;;;;;5.55;3.47;;;;;;;20.04;73.47;101057.38;4993285;28;20030;-81
2023/07/04 03:35:30;;;;;;;6.70;3.30;;;;;;;20.34;70.86;101061.06;4992877;28;20022;-81
2023/07/04 03:37:56;;;;;;;5.60;3.88;;;;;;;20.32;71.48;101069.09;5008816;28;20341;-81
2023/07/04 03:40:21;;;;;;;4.65;3.20;;;;;;;20.40;70.22;101054.50;4992609;28;20038;-82
2023/07/04 03:42:47;;;;;;;4.07;2.95;;;;;;;20.23;71.07;101058.50;4995115;28;20042;-82
2023/07/04 03:45:12;;;;;;;8.35;3.65;;;;;;;20.21;71.46;101066.53;4976028;28;20026;-83
2023/07/04 03:47:38;;;;;;;6.88;3.30;;;;;;;20.21;71.50;101060.44;4992579;28;20022;-83
2023/07/04 03:50:04;;;;;;;3.75;2.78;;;;;;;20.30;70.62;101060.50;5008918;28;20126;-83
2023/07/04 03:52:30;;;;;;;5.40;2.90;;;;;;;20.41;70.71;101067.50;4976010;28;20457;-83
2023/07/04 03:54:55;;;;;;;5.35;3.28;;;;;;;20.48;70.33;101073.94;4976206;28;20030;-83
2023/07/04 03:57:21;;;;;;;3.90;2.90;;;;;;;20.44;70.08;101069.88;4991816;28;20424;-83
2023/07/04 03:59:46;;;;;;;13.27;5.72;;;;;;;20.40;70.35;101078.97;4976171;28;20026;-84
2023/07/04 04:02:12;;;;;;;4.97;3.22;;;;;;;20.33;70.86;101089.16;4992541;28;20492;-81
2023/07/04 04:04:39;;;;;;;8.82;5.03;;;;;;;20.49;70.25;101085.28;4991390;28;20026;-81
2023/07/04 04:07:07;;;;;;;6.35;4.18;;;;;;;20.47;70.04;101081.97;4975553;28;20108;-82
2023/07/04 04:09:33;;;;;;;9.07;4.00;;;;;;;20.52;69.82;101058.75;4972885;28;20559;-82
2023/07/04 04:11:58;;;;;;;4.63;3.22;;;;;;;20.95;68.85;101081.44;4959708;28;20058;-81
2023/07/04 04:14:24;;;;;;;6.53;3.80;;;;;;;21.19;67.98;101079.31;4988079;28;20030;-83
2023/07/04 04:16:49;;;;;;;4.47;3.45;;;;;;;21.21;68.60;101080.00;4987608;28;20031;-82
2023/07/04 04:19:15;;;;;;;6.43;3.22;;;;;;;21.44;67.18;101089.41;4978666;28;20038;-82
2023/07/04 04:21:40;;;;;;;4.47;3.25;;;;;;;21.76;65.70;101091.84;4975469;28;20041;-84
2023/07/04 04:24:06;;;;;;;4.20;2.90;;;;;;;21.53;65.65;101073.75;5008559;28;20033;-86
2023/07/04 04:26:37;;;;;;;6.10;3.60;;;;;;;21.48;66.36;101084.69;5007590;28;20034;-86
2023/07/04 04:29:06;;;;;;;6.70;3.72;;;;;;;21.62;65.96;101094.84;4992079;28;20108;-89
2023/07/04 04:31:37;;;;;;;11.50;7.10;;;;;;;21.60;66.39;101094.16;4992520;28;20034;-89
2023/07/04 04:34:06;;;;;;;13.80;9.55;;;;;;;21.68;65.36;101082.94;4992180;28;20030;-88
2023/07/04 04:36:32;;;;;;;11.93;5.43;;;;;;;21.87;64.84;101101.41;4991813;28;20026;-87
2023/07/04 04:38:59;;;;;;;5.65;4.68;;;;;;;21.88;64.62;101092.53;4991592;28;20027;-88
2023/07/04 04:41:25;;;;;;;9.27;5.53;;;;;;;21.96;65.87;101099.78;4968455;28;20493;-88
2023/07/04 04:43:51;;;;;;;7.97;4.93;;;;;;;22.13;64.51;101091.22;4991255;28;20112;-88
2023/07/04 04:46:16;;;;;;;6.80;3.67;;;;;;;22.08;64.92;101103.97;4987216;28;20031;-91
2023/07/04 04:48:42;;;;;;;8.55;4.75;;;;;;;22.14;65.25;101099.97;4957052;28;20081;-87
2023/07/04 04:51:09;;;;;;;6.85;3.97;;;;;;;22.52;63.79;101102.59;4988493;28;20503;-86
2023/07/04 04:53:36;;;;;;;4.80;3.72;;;;;;;22.29;63.94;101069.56;4973899;28;20027;-89
2023/07/04 04:56:19;;;;;;;12.40;4.45;;;;;;;22.78;63.81;101107.25;4973874;28;20058;-90
2023/07/04 04:58:44;;;;;;;10.32;4.25;;;;;;;22.77;63.69;101111.69;4972681;28;20027;-90
2023/07/04 05:01:14;;;;;;;10.90;4.75;;;;;;;22.87;64.01;101086.13;4971267;28;20030;-89
2023/07/04 05:03:43;;;;;;;6.43;4.30;;;;;;;23.00;64.35;101091.09;4958105;28;20027;-88
2023/07/04 05:06:09;;;;;;;9.85;5.28;;;;;;;23.19;64.09;101100.75;5005988;28;20061;-89
2023/07/04 05:08:35;;;;;;;6.53;4.25;;;;;;;23.36;63.44;101117.63;4975098;28;20030;-87
2023/07/04 05:11:04;;;;;;;30.27;18.13;;;;;;;23.29;62.36;101119.19;4958991;28;20065;-88
2023/07/04 05:13:33;;;;;;;10.90;7.30;;;;;;;23.14;62.79;101118.84;4977875;28;20036;-84
2023/07/04 05:16:00;;;;;;;6.50;4.43;;;;;;;23.25;63.75;101109.91;4993005;28;20040;-85
2023/07/04 05:18:25;;;;;;;6.35;4.45;;;;;;;23.42;62.44;101112.59;5007446;28;20033;-85
2023/07/04 05:21:08;;;;;;;6.90;4.30;;;;;;;23.26;61.84;101107.13;5009054;28;20030;-87
2023/07/04 05:23:34;;;;;;;7.68;3.92;;;;;;;23.37;62.52;101114.84;5009541;28;20026;-86
2023/07/04 05:26:04;;;;;;;6.00;3.78;;;;;;;23.43;62.06;101100.25;5010134;28;20021;-88
2023/07/04 05:28:29;;;;;;;6.78;4.47;;;;;;;23.59;62.28;101107.53;5003385;28;20484;-86
2023/07/04 05:31:06;;;;;;;7.65;4.30;;;;;;;23.55;61.22;101106.97;4970165;28;20031;-89
2023/07/04 05:33:34;;;;;;;5.18;3.95;;;;;;;23.46;61.97;101099.94;4955130;28;20034;-87
2023/07/04 05:36:19;;;;;;;5.80;3.90;;;;;;;23.66;62.58;101113.91;4971400;28;20039;-86
2023/07/04 05:38:46;;;;;;;6.50;4.40;;;;;;;23.85;61.56;101102.38;4978654;28;20025;-85
2023/07/04 05:41:13;;;;;;;6.13;3.97;;;;;;;23.83;61.84;101105.19;5005245;28;20514;-83
2023/07/04 05:43:39;;;;;;;5.60;3.75;;;;;;;23.88;60.81;101102.06;5005242;28;20440;-85
2023/07/04 05:46:05;;;;;;;5.47;4.15;;;;;;;23.77;61.58;101104.94;4988863;28;20045;-86
2023/07/04 05:48:30;;;;;;;6.30;3.88;;;;;;;23.52;61.85;101088.78;4972722;28;20057;-90
2023/07/04 05:50:57;;;;;;;6.30;4.15;;;;;;;23.61;61.66;101103.78;4991314;28;20068;-86
2023/07/04 05:53:28;;;;;;;6.65;3.97;;;;;;;23.58;60.30;101106.66;4991447;28;20084;-87
2023/07/04 05:56:09;;;;;;;6.43;4.00;;;;;;;23.53;61.95;101108.94;4984850;28;20027;-88
2023/07/04 05:58:35;;;;;;;5.82;3.90;;;;;;;23.44;62.36;101096.63;4987242;28;20042;-90
2023/07/04 06:01:08;;;;;;;6.80;4.22;;;;;;;23.47;62.75;101104.22;4988783;28;20089;-88
2023/07/04 06:03:33;;;;;;;7.53;4.32;;;;;;;23.45;63.27;101101.75;4989211;28;20023;-86
2023/07/04 06:06:01;;;;;;;23.75;15.30;;;;;;;23.51;62.86;101095.06;4984963;28;20487;-86
2023/07/04 06:08:26;;;;;;;11.75;8.40;;;;;;;23.64;63.84;101105.28;4970222;28;20034;-87
2023/07/04 06:11:03;;;;;;;6.10;4.38;;;;;;;23.53;61.36;101098.38;4984157;28;20046;-88
2023/07/04 06:13:29;;;;;;;7.90;4.35;;;;;;;23.37;62.00;101104.28;4954356;28;20169;-86
2023/07/04 06:15:55;;;;;;;5.18;3.70;;;;;;;23.35;63.11;101103.59;4989383;28;20463;-88
2023/07/04 06:18:21;;;;;;;6.50;4.15;;;;;;;23.55;63.10;101095.59;4990133;28;20026;-89
2023/07/04 06:20:47;;;;;;;7.65;4.55;;;;;;;23.58;62.47;101103.19;5000083;28;20073;-92
2023/07/04 06:23:13;;;;;;;6.00;4.00;;;;;;;23.46;61.05;101094.66;5008753;28;20026;-90
2023/07/04 06:25:39;;;;;;;8.32;3.95;;;;;;;23.60;61.14;101109.22;5005701;28;20113;-87
2023/07/04 06:28:04;;;;;;;6.07;4.18;;;;;;;23.62;61.13;101097.53;4989997;28;20121;-87
2023/07/04 06:30:33;;;;;;;6.15;4.38;;;;;;;23.79;61.46;101108.25;4988503;28;20038;-85
2023/07/04 06:32:58;;;;;;;10.05;4.80;;;;;;;23.79;61.83;101100.31;5005708;28;20025;-83
2023/07/04 06:35:24;;;;;;;6.80;4.28;;;;;;;23.82;61.87;101107.97;4989678;28;20567;-93
2023/07/04 06:37:49;;;;;;;6.85;3.83;;;;;;;23.86;61.46;101094.31;4957667;28;20109;-91
2023/07/04 06:40:17;;;;;;;5.90;4.10;;;;;;;24.07;61.23;101104.56;4973354;28;20121;-89
2023/07/04 06:42:43;;;;;;;7.13;4.18;;;;;;;24.24;60.64;101119.59;5001633;28;20062;-87
2023/07/04 06:45:08;;;;;;;9.07;4.55;;;;;;;24.21;60.06;101109.34;4994497;28;20030;-93
2023/07/04 06:47:34;;;;;;;9.75;4.20;;;;;;;24.23;60.04;101101.25;4974205;28;20117;-90
2023/07/04 06:49:59;;;;;;;9.35;4.18;;;;;;;24.37;59.41;101106.03;4949904;28;20022;-87
2023/07/04 06:52:25;;;;;;;5.65;4.07;;;;;;;24.57;59.24;101106.66;5012578;28;20476;-87
2023/07/04 06:54:51;;;;;;;7.55;4.68;;;;;;;24.69;59.67;101105.47;5000299;28;20053;-89
2023/07/04 06:57:17;;;;;;;9.38;5.07;;;;;;;24.90;59.03;101113.03;5013324;28;20034;-87
2023/07/04 06:59:44;;;;;;;11.23;7.65;;;;;;;25.09;58.62;101117.31;5002793;28;20396;-85
2023/07/04 07:02:12;;;;;;;6.68;4.57;;;;;;;25.19;58.38;101099.50;4993129;28;20124;-86
2023/07/04 07:04:38;;;;;;;6.03;4.57;;;;;;;25.34;57.93;101113.78;4993556;28;20650;-92
2023/07/04 07:07:05;;;;;;;7.65;5.00;;;;;;;25.60;56.89;101107.59;4976574;28;20089;-89
2023/07/04 07:09:35;;;;;;;8.35;4.43;;;;;;;25.80;56.87;101114.28;4994243;28;20030;-85
2023/07/04 07:12:01;;;;;;;9.43;4.90;;;;;;;25.94;56.11;101103.03;4999935;28;20510;-90
2023/07/04 07:14:29;;;;;;;7.60;4.50;;;;;;;26.05;55.45;101107.19;4957729;28;20416;-89
2023/07/04 07:16:57;;;;;;;8.25;4.90;;;;;;;26.17;56.36;101107.72;4979430;28;20030;-90
2023/07/04 07:19:26;;;;;;;20.05;13.05;;;;;;;26.26;55.53;101122.66;4991924;28;20040;-83
2023/07/04 07:21:52;;;;;;;13.40;9.00;;;;;;;26.35;54.53;101118.16;4974892;28;20030;-86
2023/07/04 07:24:17;;;;;;;6.88;4.55;;;;;;;26.34;53.77;101108.53;4958727;28;20500;-88
2023/07/04 07:26:43;;;;;;;6.30;4.40;;;;;;;26.43;53.08;101116.38;4993327;28;20429;-89
2023/07/04 07:29:08;;;;;;;7.07;5.68;;;;;;;26.58;54.33;101117.38;5008558;28;20042;-87
2023/07/04 07:31:34;;;;;;;7.63;4.65;;;;;;;26.56;52.77;101100.78;4988306;28;20038;-88
2023/07/04 07:34:00;;;;;;;5.65;4.15;;;;;;;26.71;53.12;101100.09;5011719;28;20484;-92
2023/07/04 07:36:26;;;;;;;8.43;4.63;;;;;;;26.70;53.12;101091.31;5010930;28;20041;-90
2023/07/04 07:38:53;;;;;;;9.77;6.38;;;;;;;26.79;53.11;101094.78;5011741;28;20472;-85
2023/07/04 07:41:19;;;;;;;5.88;3.88;;;;;;;26.92;51.44;101104.84;4991190;28;20050;-87
2023/07/04 07:43:45;;;;;;;7.82;4.70;;;;;;;27.00;52.24;101103.00;4991879;28;20076;-85
2023/07/04 07:46:16;;;;;;;5.78;4.05;;;;;;;27.05;51.55;101090.09;4991656;28;20041;-86
2023/07/04 07:48:42;;;;;;;11.70;4.20;;;;;;;27.18;51.32;101089.53;4973656;28;20030;-87
2023/07/04 07:51:09;;;;;;;6.15;4.45;;;;;;;27.28;50.43;101102.63;4999382;28;20380;-87
2023/07/04 07:53:35;;;;;;;6.60;4.40;;;;;;;27.36;51.13;101107.91;5011676;28;20459;-87
2023/07/04 07:56:02;;;;;;;5.63;4.20;;;;;;;27.47;50.43;101110.19;5012827;28;20104;-90
2023/07/04 07:58:27;;;;;;;7.13;4.65;;;;;;;27.61;50.46;101111.25;4996629;28;20034;-89
2023/07/04 08:00:53;;;;;;;9.18;4.82;;;;;;;27.67;50.62;101106.13;4992069;28;20689;-91
2023/07/04 08:03:18;;;;;;;7.47;4.70;;;;;;;27.69;50.67;101109.41;4964989;28;20407;-90
2023/07/04 08:05:45;;;;;;;8.98;4.90;;;;;;;27.78;50.76;101104.06;4990947;28;20033;-91
2023/07/04 08:08:11;;;;;;;13.15;6.20;;;;;;;28.00;50.15;101105.91;4975676;28;20034;-91
2023/07/04 08:10:41;;;;;;;7.05;5.07;;;;;;;27.97;50.44;101106.25;4990333;28;20027;-90
2023/07/04 08:13:07;;;;;;;7.75;4.78;;;;;;;28.11;49.81;101108.13;4985853;28;20031;-90
2023/07/04 08:15:32;;;;;;;7.63;4.78;;;;;;;28.07;49.81;101104.19;4972036;28;20074;-87
2023/07/04 08:18:05;;;;;;;6.85;4.65;;;;;;;28.16;50.02;101103.13;4989513;28;20056;-89
2023/07/04 08:20:30;;;;;;;8.23;5.03;;;;;;;28.35;49.00;101106.34;4974886;28;20113;-86
2023/07/04 08:22:56;;;;;;;7.50;4.35;;;;;;;28.47;49.30;101102.22;4988292;28;20390;-88
2023/07/04 08:25:21;;;;;;;17.40;9.07;;;;;;;28.54;49.11;101109.31;4939843;28;20089;-89
2023/07/04 08:27:48;;;;;;;9.15;6.88;;;;;;;28.65;48.83;101116.03;4958170;28;20042;-93
2023/07/04 08:30:13;;;;;;;20.17;11.27;;;;;;;28.69;49.18;101116.50;4958455;28;20109;-94
2023/07/04 08:32:38;;;;;;;8.75;5.45;;;;;;;28.87;48.63;101108.97;5021839;28;20030;-90
2023/07/04 08:35:04;;;;;;;38.10;23.95;;;;;;;28.91;48.23;101098.81;4997200;28;20140;-92
2023/07/04 08:37:30;;;;;;;12.45;9.07;;;;;;;28.86;48.77;101091.34;4977035;28;20035;-86
2023/07/04 08:39:56;;;;;;;15.43;11.35;;;;;;;28.99;48.44;101106.72;4972617;28;20508;-88
2023/07/04 08:42:22;;;;;;;11.23;6.20;;;;;;;29.28;47.96;101121.88;4979127;28;20058;-87
2023/07/04 08:44:49;;;;;;;7.18;5.60;;;;;;;29.39;46.94;101116.88;4991097;28;20542;-88
2023/07/04 08:47:16;;;;;;;6.60;5.05;;;;;;;29.49;46.71;101107.78;4987624;28;20173;-87
2023/07/04 08:49:48;;;;;;;8.95;5.35;;;;;;;29.60;46.78;101108.16;4955572;28;20484;-85
2023/07/04 08:52:17;;;;;;;7.60;5.22;;;;;;;29.73;46.50;101106.66;4972563;28;20023;-87
2023/07/04 08:54:43;;;;;;;7.50;5.60;;;;;;;29.66;45.79;101072.72;4971739;28;20023;-87
2023/07/04 08:57:25;;;;;;;7.20;4.63;;;;;;;29.92;46.42;101109.53;4987432;28;20030;-86
2023/07/04 08:59:55;;;;;;;6.90;5.25;;;;;;;29.94;46.83;101080.81;4977866;28;20030;-88
2023/07/04 09:02:35;;;;;;;7.47;5.38;;;;;;;30.32;45.31;101103.75;4975070;28;20026;-86
2023/07/04 09:05:30;;;;;;;7.90;4.68;;;;;;;30.39;44.89;101099.31;4991096;28;20046;-88
2023/07/04 09:08:34;;;;;;;6.38;4.57;;;;;;;30.38;43.87;101111.81;4990682;28;20058;-87
2023/07/04 09:11:02;;;;;;;5.88;4.47;;;;;;;30.32;44.49;101103.75;4970004;28;20050;-89
2023/07/04 09:13:34;;;;;;;6.03;4.70;;;;;;;30.50;44.26;101098.78;4952164;28;20081;-85
2023/07/04 09:16:06;;;;;;;;;;;;;;;30.64;45.88;101102.34;4979854;28;20081;-86
2023/07/04 09:18:52;;;;;;;10.00;4.60;;;;;;;30.66;43.56;101105.69;4970929;28;19925;-89
2023/07/04 09:21:21;;;;;;;7.05;5.07;;;;;;;30.81;42.54;101088.53;5001390;28;20098;-90
2023/07/04 09:23:48;;;;;;;5.78;4.38;;;;;;;30.89;41.90;101090.22;4996088;28;20115;-87
2023/07/04 09:26:16;;;;;;;6.20;4.28;;;;;;;31.00;41.92;101086.16;5010216;28;20112;-89
2023/07/04 09:28:44;;;;;;;6.25;4.53;;;;;;;31.29;41.74;101096.63;4976173;28;20022;-87
2023/07/04 09:31:14;;;;;;;5.60;4.22;;;;;;;31.47;41.82;101093.41;4985016;28;20034;-92
2023/07/04 09:33:39;;;;;;;5.88;4.47;;;;;;;31.50;40.33;101090.31;4957499;28;20031;-88
2023/07/04 09:36:06;;;;;;;5.47;4.20;;;;;;;31.46;40.43;101086.38;4981808;28;20030;-90
2023/07/04 09:38:53;;;;;;;5.72;4.47;;;;;;;31.66;40.21;101097.97;4990568;28;20129;-86
2023/07/04 09:41:19;;;;;;;6.03;4.40;;;;;;;31.87;39.30;101094.34;4981742;28;20034;-86
2023/07/04 09:43:45;;;;;;;5.85;4.72;;;;;;;31.92;39.79;101083.03;4969769;28;20037;-86
2023/07/04 09:46:24;;;;;;;6.00;4.70;;;;;;;31.97;38.47;101085.91;4986481;28;20030;-86
2023/07/04 09:48:50;;;;;;;5.97;4.22;;;;;;;32.03;38.19;101078.91;4986886;28;20137;-85
2023/07/04 09:51:22;;;;;;;5.30;4.25;;;;;;;32.21;37.07;101095.19;4972673;28;20123;-86
2023/07/04 09:53:47;;;;;;;4.75;3.97;;;;;;;31.97;35.42;101077.91;4992240;28;20491;-85
2023/07/04 09:56:13;;;;;;;5.90;3.95;;;;;;;31.95;35.76;101080.75;5008842;28;20073;-86
2023/07/04 09:58:38;;;;;;;5.45;4.18;;;;;;;32.14;36.36;101089.00;4988697;28;20031;-88
2023/07/04 10:01:18;;;;;;;5.50;4.00;;;;;;;32.28;34.10;101085.31;4987999;28;20034;-86
2023/07/04 10:03:45;;;;;;;5.18;3.40;;;;;;;32.43;34.43;101087.78;4970316;28;20082;-86
2023/07/04 10:06:11;;;;;;;5.18;3.65;;;;;;;32.64;33.41;101090.22;4959028;28;20129;-87
2023/07/04 10:08:55;;;;;;;4.55;3.70;;;;;;;32.62;34.81;101076.22;4988793;28;20484;-85
2023/07/04 10:11:35;;;;;;;4.32;3.25;;;;;;;32.71;32.98;101084.88;4986084;28;20023;-85
2023/07/04 10:14:07;;;;;;;4.43;3.28;;;;;;;32.80;32.77;101080.94;4977782;28;20045;-89
2023/07/04 10:16:32;;;;;;;8.13;3.40;;;;;;;32.84;32.43;101079.50;4967759;28;20034;-88
2023/07/04 10:19:12;;;;;;;5.78;3.38;;;;;;;33.02;29.59;101060.06;4976519;28;20039;-87
2023/07/04 10:21:48;;;;;;;4.85;3.20;;;;;;;33.05;29.58;101078.44;4987401;28;20054;-86
2023/07/04 10:24:34;;;;;;;5.18;2.92;;;;;;;33.16;29.82;101067.03;4989657;28;20459;-87
2023/07/04 10:27:03;;;;;;;4.53;3.25;;;;;;;33.26;30.63;101059.34;4989133;28;20024;-86
2023/07/04 10:29:52;;;;;;;5.70;3.33;;;;;;;33.27;30.34;101062.84;4990226;28;20034;-87
2023/07/04 10:32:17;;;;;;;5.10;3.10;;;;;;;33.34;30.55;101069.03;5012854;28;20037;-87
2023/07/04 10:34:46;;;;;;;5.07;3.20;;;;;;;33.35;30.46;101051.88;4997781;28;20027;-87
2023/07/04 10:37:22;;;;;;;6.75;3.63;;;;;;;33.52;31.26;101065.63;4956626;28;20034;-92
2023/07/04 10:39:51;;;;;;;6.03;4.63;;;;;;;33.54;31.83;101050.16;4973995;28;20496;-91
2023/07/04 10:42:30;;;;;;;7.45;3.90;;;;;;;33.66;31.31;101061.84;4963861;28;20055;-87
2023/07/04 10:44:56;;;;;;;8.32;3.40;;;;;;;33.69;30.52;101045.31;4982720;28;20507;-89
2023/07/04 10:47:35;;;;;;;6.38;3.10;;;;;;;33.69;28.37;101053.34;4969451;28;21150;-88
2023/07/04 10:50:22;;;;;;;4.53;3.30;;;;;;;33.73;29.22;101046.53;4957397;28;20052;-85
2023/07/04 10:52:48;;;;;;;6.35;3.60;;;;;;;33.89;30.54;101035.28;4991019;28;20516;-91
2023/07/04 10:55:20;;;;;;;8.25;4.55;;;;;;;34.07;30.28;101055.16;4962531;28;20041;-86
2023/07/04 10:57:47;;;;;;;6.03;4.95;;;;;;;33.81;31.29;101048.94;5009034;28;20376;-87
2023/07/04 11:00:16;;;;;;;4.55;3.42;;;;;;;33.84;30.41;101048.50;5008907;28;20038;-88
2023/07/04 11:02:46;;;;;;;5.18;3.58;;;;;;;33.74;30.30;101042.81;5001313;28;20073;-86
2023/07/04 11:05:14;;;;;;;5.43;3.85;;;;;;;33.67;30.83;101037.47;4989987;28;20062;-93
2023/07/04 11:07:40;;;;;;;4.75;3.47;;;;;;;33.82;30.85;101039.81;4958014;28;20137;-90
2023/07/04 11:10:06;;;;;;;7.10;3.60;;;;;;;33.78;30.93;101030.59;4989149;28;20169;-92
2023/07/04 11:12:33;;;;;;;6.35;3.55;;;;;;;33.84;30.56;101034.28;4971868;28;20129;-88
2023/07/04 11:15:00;;;;;;;8.95;3.58;;;;;;;33.87;30.07;101010.53;4986018;28;20045;-86
2023/07/04 11:17:26;;;;;;;4.53;3.20;;;;;;;34.28;29.45;101035.16;4987867;28;20038;-86
2023/07/04 11:20:10;;;;;;;8.48;3.90;;;;;;;34.33;28.62;101029.94;4989671;28;20026;-88
2023/07/04 11:22:49;;;;;;;6.10;3.60;;;;;;;34.21;28.15;101019.09;4976335;28;20085;-85
2023/07/04 11:25:37;;;;;;;4.40;3.25;;;;;;;34.33;28.14;101025.41;4991682;28;20030;-83
2023/07/04 11:28:20;;;;;;;5.93;3.88;;;;;;;34.07;30.22;100993.44;4992481;28;20113;-83
2023/07/04 11:30:48;;;;;;;8.57;3.67;;;;;;;34.30;28.46;101007.03;4990645;28;20444;-89